Time;durP1;ratioP1;P1;durP2;ratioP2;P2;SDS_P1;SDS_P2;PMS_P1;PMS_P2;Temp;Humidity;BMP_temperature;BMP_pressure;BME280_temperature;BME280_humidity;BME280_pressure;Samples;Min_cycle;Max_cycle;Signal;HPM_P1;HPM_P2
2022/11/30 00:00:28;;;;;;;6.68;4.50;;;;;14.40;102077.00;;;;5034324;28;20207;-77
2022/11/30 00:02:57;;;;;;;5.43;4.03;;;;;14.30;102081.00;;;;5028964;28;20540;-77
2022/11/30 00:05:24;;;;;;;4.68;4.13;;;;;14.40;102079.00;;;;5018666;28;20666;-77
2022/11/30 00:07:53;;;;;;;5.65;4.30;;;;;14.40;102078.00;;;;5014504;28;20586;-77
2022/11/30 00:10:21;;;;;;;4.25;3.67;;;;;14.40;102083.00;;;;5015779;28;20295;-77
2022/11/30 00:12:48;;;;;;;4.25;3.72;;;;;14.40;102085.00;;;;5033890;28;20226;-77
2022/11/30 00:15:16;;;;;;;7.78;3.90;;;;;14.40;102083.00;;;;5015444;28;20208;-77
2022/11/30 00:17:44;;;;;;;4.70;3.97;;;;;14.40;102077.00;;;;5015277;28;20240;-77
2022/11/30 00:20:14;;;;;;;4.95;4.45;;;;;14.40;102080.00;;;;5015688;28;20212;-77
2022/11/30 00:22:42;;;;;;;5.72;4.78;;;;;14.40;102083.00;;;;5014959;28;20746;-77
2022/11/30 00:25:10;;;;;;;5.25;4.20;;;;;14.40;102083.00;;;;5014141;28;20678;-77
2022/11/30 00:27:37;;;;;;;14.95;4.75;;;;;14.40;102089.00;;;;5015061;28;20200;-77
2022/11/30 00:30:05;;;;;;;5.07;4.13;;;;;14.40;102087.00;;;;5034802;28;20192;-77
2022/11/30 00:32:33;;;;;;;7.32;4.50;;;;;14.40;102090.00;;;;5035018;28;20188;-77
2022/11/30 00:35:00;;;;;;;8.00;4.30;;;;;14.40;102086.00;;;;5030782;28;20236;-77
2022/11/30 00:37:29;;;;;;;6.35;4.07;;;;;14.40;102085.00;;;;5023283;28;20231;-77
2022/11/30 00:39:56;;;;;;;6.28;5.05;;;;;14.40;102086.00;;;;5030001;28;20203;-78
2022/11/30 00:42:23;;;;;;;6.13;4.57;;;;;14.40;102088.00;;;;5023080;28;20197;-77
2022/11/30 00:44:51;;;;;;;5.22;4.47;;;;;14.40;102084.00;;;;5015347;28;20211;-77
2022/11/30 00:47:18;;;;;;;5.07;4.30;;;;;14.40;102088.00;;;;5014493;28;20212;-77
2022/11/30 00:49:45;;;;;;;10.80;5.07;;;;;14.40;102090.00;;;;5031307;28;20444;-77
2022/11/30 00:52:12;;;;;;;8.48;4.90;;;;;14.40;102092.00;;;;5026519;28;20204;-77
2022/11/30 00:54:41;;;;;;;8.07;5.15;;;;;14.40;102091.00;;;;5013892;28;20722;-77
2022/11/30 00:57:08;;;;;;;6.20;5.15;;;;;14.40;102093.00;;;;5015870;28;20201;-77
2022/11/30 00:59:35;;;;;;;6.70;5.30;;;;;14.40;102085.00;;;;5015272;28;20221;-77
2022/11/30 01:02:03;;;;;;;5.47;4.32;;;;;14.40;102090.00;;;;5011957;28;20201;-77
2022/11/30 01:04:30;;;;;;;8.02;4.80;;;;;14.40;102075.00;;;;5022906;28;20204;-77
2022/11/30 01:06:57;;;;;;;5.22;4.40;;;;;14.40;102083.00;;;;5012805;28;20201;-77
2022/11/30 01:09:24;;;;;;;5.80;4.53;;;;;14.40;102083.00;;;;5022035;28;20606;-77
2022/11/30 01:11:53;;;;;;;6.78;4.43;;;;;14.40;102088.00;;;;5023331;28;20558;-77
2022/11/30 01:14:20;;;;;;;9.25;4.65;;;;;14.40;102088.00;;;;5013238;28;20212;-77
2022/11/30 01:16:47;;;;;;;6.95;4.50;;;;;14.40;102096.00;;;;5013109;28;20193;-77
2022/11/30 01:19:15;;;;;;;7.72;5.80;;;;;14.40;102098.00;;;;5010642;28;20229;-77
2022/11/30 01:21:42;;;;;;;5.93;4.50;;;;;14.40;102101.00;;;;5015885;28;20580;-78
2022/11/30 01:24:09;;;;;;;6.05;4.82;;;;;14.40;102102.00;;;;5016443;28;20280;-78
2022/11/30 01:26:36;;;;;;;5.85;4.80;;;;;14.40;102100.00;;;;5020822;28;20201;-78
2022/11/30 01:29:05;;;;;;;6.68;4.90;;;;;14.40;102099.00;;;;5012599;28;20209;-78
2022/11/30 01:31:32;;;;;;;6.22;4.68;;;;;14.40;102104.00;;;;5013388;28;20200;-78
2022/11/30 01:34:01;;;;;;;8.10;4.78;;;;;14.40;102102.00;;;;5010800;28;20196;-78
2022/11/30 01:36:28;;;;;;;6.95;4.53;;;;;14.40;102099.00;;;;5011741;28;20732;-77
2022/11/30 01:38:57;;;;;;;7.25;4.65;;;;;14.40;102100.00;;;;5013346;28;20247;-78
2022/11/30 01:41:27;;;;;;;6.47;4.13;;;;;14.40;102100.00;;;;5029708;28;20208;-77
2022/11/30 01:43:56;;;;;;;6.38;4.88;;;;;14.40;102098.00;;;;5018865;28;20662;-78
2022/11/30 01:46:32;;;;;;;6.38;4.65;;;;;14.30;102100.00;;;;5010156;28;20193;-78
2022/11/30 01:49:09;;;;;;;5.38;4.13;;;;;14.30;102103.00;;;;5011404;28;20196;-78
2022/11/30 01:51:40;;;;;;;5.75;4.82;;;;;14.30;102093.00;;;;5009828;28;20216;-78
2022/11/30 01:54:10;;;;;;;9.18;4.63;;;;;14.30;102104.00;;;;5010698;28;20203;-78
2022/11/30 01:56:41;;;;;;;6.65;4.65;;;;;14.30;102098.00;;;;5016094;28;20193;-77
2022/11/30 01:59:08;;;;;;;6.03;4.55;;;;;14.30;102097.00;;;;5011307;28;20620;-78
2022/11/30 02:01:37;;;;;;;5.95;4.20;;;;;14.30;102097.00;;;;5011177;28;20255;-78
2022/11/30 02:04:09;;;;;;;5.22;4.43;;;;;14.30;102105.00;;;;5016181;28;20201;-77
2022/11/30 02:06:36;;;;;;;7.22;4.63;;;;;14.40;102103.00;;;;5014975;28;20205;-78
2022/11/30 02:09:04;;;;;;;8.30;4.45;;;;;14.30;102095.00;;;;5017242;28;20204;-77
2022/11/30 02:11:31;;;;;;;5.38;3.97;;;;;14.30;102097.00;;;;5028770;28;20204;-78
2022/11/30 02:14:08;;;;;;;5.60;4.07;;;;;14.30;102091.00;;;;5029047;28;20208;-78
2022/11/30 02:16:48;;;;;;;13.88;5.05;;;;;14.30;102097.00;;;;5017810;28;20211;-78
2022/11/30 02:19:49;;;;;;;5.07;4.15;;;;;14.20;102102.00;;;;5028391;28;20227;-78
2022/11/30 02:22:29;;;;;;;5.03;4.13;;;;;14.30;102106.00;;;;5021739;28;20287;-78
2022/11/30 02:25:08;;;;;;;5.43;4.15;;;;;14.30;102108.00;;;;5012393;28;20324;-77
2022/11/30 02:27:53;;;;;;;6.15;4.43;;;;;14.30;102105.00;;;;5020488;28;20615;-78
2022/11/30 02:30:23;;;;;;;5.22;4.28;;;;;14.30;102107.00;;;;5011377;28;20200;-78
2022/11/30 02:32:56;;;;;;;6.07;4.20;;;;;14.30;102105.00;;;;5011638;28;20288;-78
2022/11/30 02:35:27;;;;;;;5.72;4.47;;;;;14.30;102101.00;;;;5010449;28;20225;-78
2022/11/30 02:37:56;;;;;;;7.63;4.63;;;;;14.30;102100.00;;;;5011093;28;20248;-78
2022/11/30 02:40:24;;;;;;;8.10;4.50;;;;;14.30;102108.00;;;;5011533;28;20552;-78
2022/11/30 02:42:53;;;;;;;6.10;4.32;;;;;14.30;102105.00;;;;5011155;28;20259;-78
2022/11/30 02:45:30;;;;;;;7.95;4.43;;;;;14.30;102113.00;;;;5008920;28;20193;-78
2022/11/30 02:48:04;;;;;;;6.85;4.90;;;;;14.30;102111.00;;;;5013012;28;20204;-78
2022/11/30 02:50:37;;;;;;;5.95;4.85;;;;;14.30;102110.00;;;;5012950;28;20686;-78
2022/11/30 02:53:04;;;;;;;5.75;4.50;;;;;14.30;102108.00;;;;5010999;28;20197;-78
2022/11/30 02:55:32;;;;;;;5.60;3.88;;;;;14.30;102107.00;;;;5008619;28;20201;-78
2022/11/30 02:57:59;;;;;;;4.88;4.10;;;;;14.30;102106.00;;;;5008429;28;20235;-78
2022/11/30 03:00:28;;;;;;;5.13;4.22;;;;;14.30;102106.00;;;;5010887;28;20614;-78
2022/11/30 03:02:55;;;;;;;6.57;4.47;;;;;14.30;102114.00;;;;5006694;28;20201;-78
2022/11/30 03:05:22;;;;;;;5.07;4.13;;;;;14.30;102117.00;;;;5021183;28;20201;-78
2022/11/30 03:07:49;;;;;;;7.72;4.82;;;;;14.30;102116.00;;;;5021262;28;20204;-78
2022/11/30 03:10:17;;;;;;;7.18;4.35;;;;;14.30;102121.00;;;;5016834;28;20200;-78
2022/11/30 03:12:44;;;;;;;7.60;4.25;;;;;14.30;102127.00;;;;5018983;28;20208;-78
2022/11/30 03:15:12;;;;;;;6.28;4.47;;;;;14.30;102119.00;;;;5015525;28;20197;-78
2022/11/30 03:17:40;;;;;;;5.95;4.80;;;;;14.30;102112.00;;;;5009168;28;20196;-78
2022/11/30 03:20:09;;;;;;;6.50;4.50;;;;;14.30;102120.00;;;;5013906;28;20207;-78
2022/11/30 03:22:36;;;;;;;6.07;4.07;;;;;14.30;102118.00;;;;5008562;28;20255;-78
2022/11/30 03:25:04;;;;;;;5.45;4.45;;;;;14.30;102120.00;;;;5007513;28;20200;-78
2022/11/30 03:27:31;;;;;;;6.57;4.63;;;;;14.30;102116.00;;;;5007512;28;20201;-78
2022/11/30 03:29:58;;;;;;;5.55;4.35;;;;;14.30;102120.00;;;;5013671;28;20219;-78
2022/11/30 03:32:26;;;;;;;4.03;3.45;;;;;14.30;102112.00;;;;5023393;28;20578;-78
2022/11/30 03:34:54;;;;;;;6.25;4.75;;;;;14.30;102127.00;;;;5019901;28;20256;-78
2022/11/30 03:37:21;;;;;;;6.50;4.38;;;;;14.30;102127.00;;;;5008666;28;20205;-78
2022/11/30 03:39:49;;;;;;;5.80;4.40;;;;;14.30;102126.00;;;;5013956;28;20228;-76
2022/11/30 03:42:16;;;;;;;7.88;4.80;;;;;14.30;102129.00;;;;5020315;28;20197;-76
2022/11/30 03:44:43;;;;;;;10.25;4.75;;;;;14.30;102130.00;;;;5014504;28;20576;-76
2022/11/30 03:47:10;;;;;;;4.78;4.05;;;;;14.30;102138.00;;;;5019098;28;20593;-76
2022/11/30 03:49:38;;;;;;;5.80;4.20;;;;;14.20;102136.00;;;;5008662;28;20204;-76
2022/11/30 03:52:06;;;;;;;5.70;4.65;;;;;14.20;102135.00;;;;5010386;28;20204;-76
2022/11/30 03:54:34;;;;;;;7.03;4.55;;;;;14.20;102132.00;;;;5007115;28;20204;-77
2022/11/30 03:57:01;;;;;;;13.70;5.10;;;;;14.20;102134.00;;;;5016864;28;20200;-77
2022/11/30 03:59:28;;;;;;;7.78;4.97;;;;;14.20;102130.00;;;;5012807;28;20231;-77
2022/11/30 04:01:55;;;;;;;8.35;4.75;;;;;14.20;102138.00;;;;5008886;28;20200;-77
2022/11/30 04:04:22;;;;;;;7.13;4.07;;;;;14.20;102136.00;;;;5007625;28;20678;-77
2022/11/30 04:06:50;;;;;;;5.53;4.13;;;;;14.20;102139.00;;;;5010596;28;20208;-77
2022/11/30 04:09:18;;;;;;;5.18;4.20;;;;;14.20;102144.00;;;;5018610;28;20189;-77
2022/11/30 04:11:46;;;;;;;5.38;4.25;;;;;14.20;102145.00;;;;5013234;28;20200;-77
2022/11/30 04:14:13;;;;;;;6.40;4.10;;;;;14.20;102143.00;;;;5026386;28;20200;-77
2022/11/30 04:16:40;;;;;;;6.75;4.30;;;;;14.10;102142.00;;;;5023855;28;20677;-77
2022/11/30 04:19:07;;;;;;;7.95;4.10;;;;;14.10;102144.00;;;;5012908;28;20714;-77
2022/11/30 04:21:35;;;;;;;5.28;4.35;;;;;14.10;102144.00;;;;5008393;28;20196;-77
2022/11/30 04:24:02;;;;;;;6.30;4.38;;;;;14.10;102140.00;;;;5011879;28;20200;-77
2022/11/30 04:26:31;;;;;;;4.50;4.05;;;;;14.10;102141.00;;;;5018254;28;20200;-77
2022/11/30 04:28:58;;;;;;;6.20;4.68;;;;;14.10;102145.00;;;;5020817;28;21425;-77
2022/11/30 04:31:25;;;;;;;5.90;4.75;;;;;14.10;102139.00;;;;5008639;28;20272;-77
2022/11/30 04:33:54;;;;;;;5.43;3.88;;;;;14.10;102142.00;;;;5009472;28;20235;-77
2022/11/30 04:36:21;;;;;;;5.72;4.43;;;;;14.10;102142.00;;;;5010336;28;20731;-77
2022/11/30 04:38:48;;;;;;;5.13;3.55;;;;;14.10;102142.00;;;;5012443;28;20229;-77
2022/11/30 04:41:16;;;;;;;5.38;4.25;;;;;14.10;102144.00;;;;5012450;28;20228;-77
2022/11/30 04:43:45;;;;;;;4.57;3.92;;;;;14.10;102146.00;;;;5011799;28;20683;-77
2022/11/30 04:46:12;;;;;;;5.40;4.47;;;;;14.10;102149.00;;;;5011120;28;20209;-77
2022/11/30 04:48:39;;;;;;;5.95;4.50;;;;;14.00;102146.00;;;;5010248;28;20193;-77
2022/11/30 04:51:08;;;;;;;5.47;4.45;;;;;14.00;102143.00;;;;5011604;28;20204;-77
2022/11/30 04:53:37;;;;;;;5.78;4.28;;;;;14.00;102140.00;;;;5012074;28;20205;-77
2022/11/30 04:56:07;;;;;;;6.85;4.63;;;;;14.00;102145.00;;;;5018188;28;20205;-77
2022/11/30 04:58:35;;;;;;;5.00;4.28;;;;;14.00;102142.00;;;;5011549;28;20221;-78
2022/11/30 05:01:04;;;;;;;5.65;4.40;;;;;14.00;102140.00;;;;5013441;28;20244;-77
2022/11/30 05:03:31;;;;;;;4.70;4.00;;;;;14.00;102143.00;;;;5011346;28;20205;-77
2022/11/30 05:05:59;;;;;;;5.65;4.18;;;;;14.00;102149.00;;;;5017279;28;20211;-77
2022/11/30 05:08:26;;;;;;;5.72;4.03;;;;;14.00;102152.00;;;;5020735;28;20196;-77
2022/11/30 05:10:54;;;;;;;6.15;3.97;;;;;14.00;102156.00;;;;5021556;28;20578;-77
2022/11/30 05:13:23;;;;;;;4.78;3.75;;;;;13.90;102148.00;;;;5012235;28;20201;-77
2022/11/30 05:15:52;;;;;;;5.03;4.22;;;;;13.90;102149.00;;;;5011844;28;20197;-77
2022/11/30 05:18:21;;;;;;;4.13;3.72;;;;;13.90;102158.00;;;;5011930;28;20201;-77
2022/11/30 05:20:49;;;;;;;7.25;4.10;;;;;13.90;102155.00;;;;5025629;28;20212;-77
2022/11/30 05:23:16;;;;;;;4.13;3.35;;;;;13.90;102154.00;;;;5029668;28;20770;-77
2022/11/30 05:25:44;;;;;;;7.78;4.32;;;;;13.90;102162.00;;;;5020791;28;20200;-78
2022/11/30 05:28:11;;;;;;;5.35;4.00;;;;;13.90;102156.00;;;;5012753;28;20204;-77
2022/11/30 05:30:39;;;;;;;8.80;5.05;;;;;13.90;102155.00;;;;5018453;28;20675;-77
2022/11/30 05:33:07;;;;;;;8.07;4.75;;;;;13.90;102147.00;;;;5011427;28;20196;-77
2022/11/30 05:35:36;;;;;;;6.22;4.53;;;;;13.80;102149.00;;;;5015853;28;20232;-77
2022/11/30 05:38:05;;;;;;;5.50;4.57;;;;;13.90;102149.00;;;;5023715;28;20636;-77
2022/11/30 05:40:32;;;;;;;6.32;4.45;;;;;13.90;102147.00;;;;5030776;28;20227;-77
2022/11/30 05:43:01;;;;;;;8.05;4.68;;;;;13.80;102143.00;;;;5011266;28;20205;-78
2022/11/30 05:45:29;;;;;;;6.82;5.10;;;;;13.80;102147.00;;;;5012494;28;20655;-78
2022/11/30 05:47:56;;;;;;;8.55;5.72;;;;;13.80;102149.00;;;;5016655;28;20205;-78
2022/11/30 05:50:24;;;;;;;6.50;5.18;;;;;13.80;102147.00;;;;5022367;28;20200;-78
2022/11/30 05:52:55;;;;;;;8.27;5.05;;;;;13.80;102149.00;;;;5021254;28;20200;-78
2022/11/30 05:55:22;;;;;;;11.43;5.00;;;;;13.80;102155.00;;;;5018236;28;20205;-78
2022/11/30 05:57:49;;;;;;;6.80;4.72;;;;;13.80;102158.00;;;;5011205;28;20201;-78
2022/11/30 06:00:17;;;;;;;7.57;4.55;;;;;13.80;102151.00;;;;5010074;28;20232;-78
2022/11/30 06:02:45;;;;;;;5.75;4.20;;;;;13.80;102158.00;;;;5028595;28;20204;-78
2022/11/30 06:05:13;;;;;;;9.35;4.82;;;;;13.70;102162.00;;;;5020247;28;20610;-78
2022/11/30 06:07:40;;;;;;;5.80;4.60;;;;;13.70;102164.00;;;;5024122;28;20217;-78
2022/11/30 06:10:10;;;;;;;6.72;5.18;;;;;13.70;102167.00;;;;5012400;28;20205;-78
2022/11/30 06:12:37;;;;;;;8.27;4.93;;;;;13.70;102172.00;;;;5029952;28;20196;-78
2022/11/30 06:15:05;;;;;;;5.53;4.53;;;;;13.70;102170.00;;;;5022315;28;20201;-78
2022/11/30 06:17:33;;;;;;;7.28;4.18;;;;;13.60;102174.00;;;;5009708;28;20205;-78
2022/11/30 06:20:00;;;;;;;6.10;4.85;;;;;13.60;102176.00;;;;5011096;28;20220;-78
2022/11/30 06:22:27;;;;;;;8.45;4.93;;;;;13.60;102172.00;;;;5015220;28;20212;-78
2022/11/30 06:24:54;;;;;;;8.52;4.57;;;;;13.60;102171.00;;;;5013956;28;20201;-78
2022/11/30 06:27:23;;;;;;;7.22;4.18;;;;;13.60;102163.00;;;;5022995;28;20200;-78
2022/11/30 06:29:50;;;;;;;9.15;4.40;;;;;13.60;102182.00;;;;5014490;28;20212;-78
2022/11/30 06:32:17;;;;;;;5.93;4.97;;;;;13.60;102175.00;;;;5010905;28;20209;-78
2022/11/30 06:34:45;;;;;;;5.68;4.38;;;;;13.60;102181.00;;;;5009681;28;20237;-78
2022/11/30 06:37:12;;;;;;;8.02;4.45;;;;;13.60;102179.00;;;;5022832;28;20563;-78
2022/11/30 06:39:39;;;;;;;6.18;4.88;;;;;13.50;102181.00;;;;5022244;28;20227;-78
2022/11/30 06:42:06;;;;;;;5.10;4.45;;;;;13.50;102180.00;;;;5023358;28;20200;-78
2022/11/30 06:44:35;;;;;;;6.00;4.50;;;;;13.50;102186.00;;;;5017479;28;20211;-78
2022/11/30 06:47:02;;;;;;;7.07;5.30;;;;;13.50;102187.00;;;;5015463;28;20579;-78
2022/11/30 06:49:29;;;;;;;6.65;5.00;;;;;13.50;102183.00;;;;5009486;28;20679;-77
2022/11/30 06:51:57;;;;;;;8.73;6.32;;;;;13.40;102192.00;;;;5032708;28;20212;-78
2022/11/30 06:54:24;;;;;;;8.57;6.53;;;;;13.40;102189.00;;;;5011725;28;20193;-78
2022/11/30 06:56:51;;;;;;;7.97;5.90;;;;;13.40;102192.00;;;;5013126;28;20208;-80
2022/11/30 06:59:18;;;;;;;5.93;4.97;;;;;13.30;102190.00;;;;5016258;28;20232;-77
2022/11/30 07:01:47;;;;;;;7.85;5.95;;;;;13.30;102200.00;;;;5020213;28;20201;-78
2022/11/30 07:04:14;;;;;;;8.95;5.80;;;;;13.30;102200.00;;;;5014504;28;20209;-78
2022/11/30 07:06:42;;;;;;;12.00;9.30;;;;;13.20;102195.00;;;;5015185;28;20465;-77
2022/11/30 07:09:12;;;;;;;9.13;6.90;;;;;13.30;102199.00;;;;5014333;28;20251;-77
2022/11/30 07:11:39;;;;;;;7.18;5.78;;;;;13.20;102207.00;;;;5021858;28;20199;-77
2022/11/30 07:14:06;;;;;;;7.07;6.20;;;;;13.20;102210.00;;;;5009810;28;20679;-77
2022/11/30 07:16:33;;;;;;;7.28;5.03;;;;;13.20;102213.00;;;;5008716;28;20216;-77
2022/11/30 07:19:02;;;;;;;6.80;5.13;;;;;13.10;102218.00;;;;5009912;28;20216;-77
2022/11/30 07:21:29;;;;;;;7.07;5.30;;;;;13.10;102224.00;;;;5011719;28;20196;-77
2022/11/30 07:26:41;;;;;;;5.82;4.78;;;;;13.00;102221.00;;;;5021058;28;20584;-77
2022/11/30 07:29:08;;;;;;;6.07;5.07;;;;;12.90;102230.00;;;;5030760;28;20196;-77
2022/11/30 07:31:35;;;;;;;5.93;5.00;;;;;12.90;102220.00;;;;5011353;28;20200;-77
2022/11/30 07:34:07;;;;;;;8.40;4.90;;;;;12.80;102222.00;;;;5023344;28;20197;-77
2022/11/30 07:36:35;;;;;;;6.72;5.45;;;;;12.80;102230.00;;;;5019868;28;20203;-77
2022/11/30 07:39:04;;;;;;;9.77;6.05;;;;;12.70;102226.00;;;;5021506;28;20219;-77
2022/11/30 07:41:31;;;;;;;7.43;5.95;;;;;12.70;102234.00;;;;5012964;28;20690;-77
2022/11/30 07:43:59;;;;;;;10.65;7.47;;;;;12.70;102236.00;;;;5019198;28;20201;-77
2022/11/30 07:46:26;;;;;;;12.70;8.38;;;;;12.60;102239.00;;;;5013597;28;20205;-77
2022/11/30 07:48:53;;;;;;;13.43;9.43;;;;;12.60;102243.00;;;;5022969;28;20204;-77
2022/11/30 07:51:23;;;;;;;17.90;10.35;;;;;12.50;102245.00;;;;5027556;28;20212;-77
2022/11/30 07:53:50;;;;;;;18.48;11.00;;;;;12.50;102251.00;;;;5020821;28;20213;-77
2022/11/30 07:56:19;;;;;;;16.20;10.93;;;;;12.50;102254.00;;;;5012859;28;20204;-77
2022/11/30 07:58:47;;;;;;;14.45;10.55;;;;;12.40;102251.00;;;;5014457;28;20686;-77
2022/11/30 08:01:17;;;;;;;12.98;8.63;;;;;12.40;102258.00;;;;5031595;28;20231;-77
2022/11/30 08:03:45;;;;;;;11.00;7.78;;;;;12.40;102260.00;;;;5011573;28;20209;-76
2022/11/30 08:06:15;;;;;;;9.65;6.82;;;;;12.30;102255.00;;;;5011989;28;20204;-76
2022/11/30 08:08:45;;;;;;;9.93;7.22;;;;;12.30;102255.00;;;;5010678;28;20232;-76
2022/11/30 08:11:16;;;;;;;9.63;7.07;;;;;12.30;102264.00;;;;5016031;28;20679;-77
2022/11/30 08:13:44;;;;;;;13.05;7.10;;;;;12.20;102257.00;;;;5020086;28;20197;-76
2022/11/30 08:16:13;;;;;;;11.75;6.55;;;;;12.20;102258.00;;;;5025869;28;20646;-77
2022/11/30 08:18:41;;;;;;;11.85;7.70;;;;;12.20;102268.00;;;;5014103;28;20197;-76
2022/11/30 08:21:10;;;;;;;11.10;7.97;;;;;12.20;102265.00;;;;5025228;28;20228;-77
2022/11/30 08:23:40;;;;;;;10.88;7.75;;;;;12.20;102275.00;;;;5012879;28;20201;-77
2022/11/30 08:26:11;;;;;;;9.88;7.03;;;;;12.20;102272.00;;;;5012365;28;20205;-77
2022/11/30 08:28:39;;;;;;;12.50;7.75;;;;;12.20;102272.00;;;;5016939;28;20197;-76
2022/11/30 08:31:08;;;;;;;13.07;8.23;;;;;12.20;102280.00;;;;5012983;28;20667;-77
2022/11/30 08:33:37;;;;;;;12.23;8.45;;;;;12.20;102275.00;;;;5026559;28;21026;-77
2022/11/30 08:36:09;;;;;;;11.98;7.57;;;;;12.10;102275.00;;;;5014731;28;20233;-77
2022/11/30 08:38:36;;;;;;;10.38;7.10;;;;;12.20;102279.00;;;;5019632;28;20201;-77
2022/11/30 08:41:04;;;;;;;9.60;6.78;;;;;12.20;102280.00;;;;5020371;28;20587;-77
2022/11/30 08:43:33;;;;;;;12.15;8.02;;;;;12.30;102287.00;;;;5011473;28;20213;-77
2022/11/30 08:46:01;;;;;;;8.68;6.40;;;;;12.30;102293.00;;;;5017911;28;20213;-77
2022/11/30 08:48:28;;;;;;;10.07;7.30;;;;;12.40;102295.00;;;;5017637;28;20212;-76
2022/11/30 08:51:00;;;;;;;10.25;7.28;;;;;12.40;102294.00;;;;5034657;28;20207;-77
2022/11/30 08:53:28;;;;;;;14.23;6.97;;;;;12.50;102291.00;;;;5012769;28;20201;-76
2022/11/30 08:55:56;;;;;;;12.60;8.43;;;;;12.50;102293.00;;;;5021287;28;20204;-77
2022/11/30 08:58:24;;;;;;;12.18;8.02;;;;;12.60;102297.00;;;;5030711;28;20195;-77
2022/11/30 09:00:53;;;;;;;11.15;7.55;;;;;12.60;102298.00;;;;5019546;28;20712;-77
2022/11/30 09:03:20;;;;;;;10.85;7.88;;;;;12.70;102292.00;;;;5038095;28;20201;-77
2022/11/30 09:05:47;;;;;;;12.05;8.25;;;;;12.70;102297.00;;;;5017672;28;20212;-77
2022/11/30 09:08:15;;;;;;;11.77;8.85;;;;;12.80;102306.00;;;;5016597;28;20197;-77
2022/11/30 09:10:42;;;;;;;14.30;10.05;;;;;12.90;102302.00;;;;5018898;28;20230;-78
2022/11/30 09:13:09;;;;;;;17.20;11.10;;;;;12.90;102309.00;;;;5013908;28;20201;-77
2022/11/30 09:15:37;;;;;;;14.20;10.43;;;;;13.00;102311.00;;;;5021214;28;20193;-78
2022/11/30 09:18:05;;;;;;;15.77;11.35;;;;;13.00;102311.00;;;;5019871;28;20207;-78
2022/11/30 09:20:34;;;;;;;14.38;10.10;;;;;13.10;102317.00;;;;5018729;28;20709;-78
2022/11/30 09:23:02;;;;;;;17.70;11.65;;;;;13.10;102314.00;;;;5015598;28;20206;-77
2022/11/30 09:25:29;;;;;;;14.00;9.88;;;;;13.20;102312.00;;;;5014530;28;20196;-78
2022/11/30 09:27:56;;;;;;;12.43;9.50;;;;;13.20;102313.00;;;;5018809;28;20551;-77
2022/11/30 09:30:23;;;;;;;11.38;8.00;;;;;13.30;102300.00;;;;5017192;28;20205;-78
2022/11/30 09:32:51;;;;;;;10.23;7.70;;;;;13.30;102317.00;;;;5019616;28;20209;-78
2022/11/30 09:35:19;;;;;;;10.27;7.82;;;;;13.40;102312.00;;;;5037093;28;20224;-78
2022/11/30 09:37:46;;;;;;;12.40;8.18;;;;;13.40;102313.00;;;;5025278;28;20201;-78
2022/11/30 09:40:15;;;;;;;11.07;7.55;;;;;13.50;102316.00;;;;5027590;28;20242;-78
2022/11/30 09:42:51;;;;;;;10.32;7.15;;;;;13.50;102308.00;;;;5014143;28;20208;-78
2022/11/30 09:45:24;;;;;;;11.35;7.18;;;;;13.60;102318.00;;;;5014896;28;20221;-78
2022/11/30 09:48:18;;;;;;;10.80;7.88;;;;;13.60;102311.00;;;;5026068;28;20200;-77
2022/11/30 09:50:49;;;;;;;12.48;8.25;;;;;13.70;102322.00;;;;5010121;28;20240;-77
2022/11/30 09:53:22;;;;;;;12.38;8.52;;;;;13.80;102311.00;;;;5013571;28;20200;-77
2022/11/30 09:55:49;;;;;;;9.77;6.90;;;;;13.80;102324.00;;;;5011505;28;20201;-77
2022/11/30 09:58:24;;;;;;;12.02;7.85;;;;;13.80;102319.00;;;;5022110;28;20204;-77
2022/11/30 10:00:52;;;;;;;9.05;6.88;;;;;14.00;102324.00;;;;5031516;28;20235;-77
2022/11/30 10:03:22;;;;;;;13.07;8.38;;;;;14.00;102319.00;;;;5022249;28;20667;-78
2022/11/30 10:05:56;;;;;;;12.63;8.13;;;;;14.00;102322.00;;;;5027750;28;20200;-77
2022/11/30 10:08:35;;;;;;;11.13;7.28;;;;;14.10;102315.00;;;;5020783;28;20201;-77
2022/11/30 10:11:27;;;;;;;12.13;9.07;;;;;14.10;102320.00;;;;5011898;28;20232;-77
2022/11/30 10:14:04;;;;;;;11.68;7.60;;;;;14.20;102327.00;;;;5021712;28;20207;-77
2022/11/30 10:16:41;;;;;;;12.43;8.15;;;;;14.20;102322.00;;;;5024378;28;20279;-77
2022/11/30 10:19:20;;;;;;;16.02;9.50;;;;;14.30;102324.00;;;;5028823;28;20199;-77
2022/11/30 10:22:03;;;;;;;13.95;8.68;;;;;14.30;102327.00;;;;5027936;28;20235;-77
2022/11/30 10:24:41;;;;;;;12.35;8.80;;;;;14.30;102327.00;;;;5010438;28;20201;-77
2022/11/30 10:27:16;;;;;;;11.55;8.90;;;;;14.30;102333.00;;;;5010990;28;20204;-77
2022/11/30 10:29:43;;;;;;;10.93;7.57;;;;;14.40;102331.00;;;;5010608;28;20200;-77
2022/11/30 10:32:16;;;;;;;15.48;7.82;;;;;14.40;102327.00;;;;5011095;28;20729;-77
2022/11/30 10:34:46;;;;;;;10.02;7.88;;;;;14.40;102323.00;;;;5016315;28;20323;-77
2022/11/30 10:37:19;;;;;;;13.05;8.88;;;;;14.40;102327.00;;;;5029433;28;20208;-77
2022/11/30 10:39:57;;;;;;;11.20;8.13;;;;;14.40;102319.00;;;;5026524;28;20659;-77
2022/11/30 10:42:30;;;;;;;12.40;9.30;;;;;14.50;102319.00;;;;5014889;28;20197;-77
2022/11/30 10:45:03;;;;;;;12.77;9.02;;;;;14.50;102318.00;;;;5031245;28;20200;-77
2022/11/30 10:47:35;;;;;;;13.82;9.55;;;;;14.50;102313.00;;;;5009831;28;20601;-77
2022/11/30 10:50:04;;;;;;;11.65;8.73;;;;;14.60;102304.00;;;;5010628;28;20189;-78
2022/11/30 10:52:40;;;;;;;14.82;9.48;;;;;14.60;102311.00;;;;5020404;28;20196;-77
2022/11/30 10:55:14;;;;;;;13.80;10.27;;;;;14.60;102318.00;;;;5021156;28;20197;-78
2022/11/30 10:57:42;;;;;;;13.32;9.77;;;;;14.70;102308.00;;;;5021955;28;21035;-77
2022/11/30 11:00:15;;;;;;;13.32;9.93;;;;;14.70;102315.00;;;;5024455;28;20212;-78
2022/11/30 11:02:44;;;;;;;11.32;8.73;;;;;14.70;102309.00;;;;5019259;28;20200;-77
2022/11/30 11:05:18;;;;;;;13.27;10.52;;;;;14.70;102306.00;;;;5022844;28;20208;-77
2022/11/30 11:07:56;;;;;;;12.15;8.70;;;;;14.80;102317.00;;;;5025740;28;20212;-76
2022/11/30 11:10:31;;;;;;;12.77;9.30;;;;;14.80;102304.00;;;;5015563;28;20201;-77
2022/11/30 11:12:59;;;;;;;12.82;9.30;;;;;14.90;102304.00;;;;5017330;28;20246;-77
2022/11/30 11:15:27;;;;;;;15.80;10.43;;;;;14.90;102307.00;;;;5024163;28;20200;-77
2022/11/30 11:18:20;;;;;;;14.18;9.95;;;;;14.90;102304.00;;;;5020923;28;20443;-76
2022/11/30 11:20:47;;;;;;;13.98;10.07;;;;;15.00;102307.00;;;;5024979;28;20225;-77
2022/11/30 11:23:27;;;;;;;14.75;10.57;;;;;14.90;102307.00;;;;5022978;28;20203;-77
2022/11/30 11:25:54;;;;;;;14.85;10.00;;;;;15.00;102301.00;;;;5010122;28;20207;-79
2022/11/30 11:28:23;;;;;;;15.18;10.82;;;;;15.10;102294.00;;;;5011373;28;20614;-79
2022/11/30 11:30:53;;;;;;;14.05;10.10;;;;;15.10;102304.00;;;;5014038;28;20212;-79
2022/11/30 11:33:24;;;;;;;12.95;10.07;;;;;15.10;102296.00;;;;5012332;28;20409;-79
2022/11/30 11:35:53;;;;;;;13.38;10.20;;;;;15.10;102304.00;;;;5021153;28;20691;-79
2022/11/30 11:38:25;;;;;;;16.40;11.77;;;;;15.20;102295.00;;;;5011827;28;20197;-79
2022/11/30 11:40:59;;;;;;;14.60;11.25;;;;;15.20;102298.00;;;;5020375;28;20217;-79
2022/11/30 11:43:30;;;;;;;16.65;11.00;;;;;15.30;102290.00;;;;5018557;28;20694;-78
2022/11/30 11:46:00;;;;;;;17.63;12.18;;;;;15.50;102296.00;;;;5022024;28;20279;-77
2022/11/30 11:48:34;;;;;;;16.17;11.80;;;;;15.50;102301.00;;;;5015250;28;20200;-77
2022/11/30 11:51:02;;;;;;;13.82;10.15;;;;;15.60;102298.00;;;;5021004;28;20200;-77
2022/11/30 11:53:46;;;;;;;13.57;10.15;;;;;15.50;102297.00;;;;5013135;28;20216;-77
2022/11/30 11:56:20;;;;;;;16.13;10.52;;;;;15.60;102303.00;;;;5018198;28;20576;-77
2022/11/30 11:58:51;;;;;;;17.73;11.55;;;;;15.60;102304.00;;;;5013103;28;20220;-77
2022/11/30 12:01:33;;;;;;;15.65;10.68;;;;;15.60;102305.00;;;;5005915;28;20572;-77
2022/11/30 12:04:20;;;;;;;16.02;11.43;;;;;15.60;102308.00;;;;5008849;28;20208;-77
2022/11/30 12:06:51;;;;;;;15.63;11.70;;;;;15.60;102310.00;;;;5007038;28;20200;-77
2022/11/30 12:09:27;;;;;;;13.85;10.75;;;;;15.60;102301.00;;;;5008024;28;20224;-77
2022/11/30 12:11:54;;;;;;;14.35;10.65;;;;;15.60;102302.00;;;;5007465;28;20193;-77
2022/11/30 12:14:21;;;;;;;16.73;12.05;;;;;15.60;102303.00;;;;5007977;28;20213;-77
2022/11/30 12:17:04;;;;;;;15.15;11.45;;;;;15.50;102300.00;;;;5008432;28;20193;-77